Airfield :
LOGIN :

Register | Disclaimer

   EN    FR    IT 

 










Legend :    VFR   Marginal VFR   IFR   Intensive IFR   Very Intensive IFR
Visi :
Ceiling :
>= 8 km
>= 3000ft
5 to 8 km
1000 to 3000 ft
1500m to 5 km
500 to 1000 ft
800 to 1500m
200 to 500 ft
< 800m
< 200 ft
Symbols :   Thunderstorms  Fog  Heavy snow  Heavy precipitations  Wind > 20 kt
SIGMETs :     Misc.  Thunderstorms  Icing  Turbulence  Mountain Waves  Volcanic Ashes







- Airport Elevation : 3 ft
- IATA code : DHR


EHKD - Den Helder De Kooy

CURRENT METAR :
  • 180425Z AUTO 18007KT 9999 SCT018 ///028 15/14 Q1019 WHT 19009KT 9999 FEW015 BKN200

EXPIRED METARs :
  • 180406Z AUTO 17008KT 9999 FEW019 SCT024 OVC045 15/14 Q1019 WHT
  • 180355Z AUTO 17007KT 9999 OVC044 15/14 Q1018 BLU
  • 180332Z AUTO 17007KT 9999 FEW018 BKN046 OVC340 15/13 Q1019 BLU
  • 180325Z AUTO 17007KT 9999 BKN018 OVC360 15/13 Q1019 WHT
  • 180255Z AUTO 17007KT 9999 FEW022 15/13 Q1019 BLU
  • 180225Z AUTO 17007KT 9999 FEW023 15/13 Q1019 BLU
  • 180155Z AUTO 17006KT 150V210 9999 FEW026 14/13 Q1019 BLU

TAF TAF EHKD
Valid from the 18 at 01:00 until the 18 at 13:00 UTC


180002Z 1801/1813 19007KT FEW030
BECMG 1804/1807 24015G25KT
TEMPO 1810/1813 SCT015 BKN020
No reported NOTAMs for that airfield.



MET'MAP, your aeronautical weather chart ! - Copyright ORBIFLY December 2007 - Disclaimer

ORBIFLY MET'MAP TEAM :

Programming & Development : Alexandra Zaïnal
Concept & Development : Baudouin d'Aumeries
Co-Development & Prog : Marc-Olivier Méhu
Technical & hardware support : Manuel Goepfert

Contact : metmap@orbifly.com




SOURCES & CREDITS :

   NOAA